Omer, Michigan
Current Conditions -  °F | °C
As of 2:12 PM on Friday 24 Oct 2014 (Local Time) from KIKW Reporting Station
Overcast Overcast  
Wind Chill: 61°   Ceiling: 2500
Heat Index: 61°   Visibility: 7mi
Dew Point: 49°   Wind: 7mph
Humidity: 65%   Direction: 230°SW
Pressure: 29.97"   Gusts: NA
Location:  44.05°N, 83.85°W
Report Text: KIKW 241812Z AUTO 23006KT 7SM BKN025 OVC050 16/10 A2997 RMK AO2 T01610095
Loading
Personal Weather Stations






























Interactive Weather Map
Tropical Storm Tracking
New forecast layout! Learn more

10-Day Weather Forecast

Advertisements
Track Severe Weather on mobile